Time;durP1;ratioP1;P1;durP2;ratioP2;P2;SDS_P1;SDS_P2;PMS_P1;PMS_P2;Temp;Humidity;BMP_temperature;BMP_pressure;BME280_temperature;BME280_humidity;BME280_pressure;Samples;Min_cycle;Max_cycle;Signal;HPM_P1;HPM_P2
2022/03/22 00:00:39;;;;;;;15.68;9.57;;;;;;;4.39;51.47;103337.13;4809594;29;20031;-78
2022/03/22 00:03:05;;;;;;;14.80;9.07;;;;;;;4.37;50.49;103335.50;4793016;29;20115;-79
2022/03/22 00:05:32;;;;;;;14.65;9.23;;;;;;;4.29;50.90;103321.81;4792991;29;20121;-78
2022/03/22 00:07:59;;;;;;;16.35;10.18;;;;;;;4.37;50.21;103323.03;4806731;29;20031;-78
2022/03/22 00:10:24;;;;;;;17.08;9.68;;;;;;;4.41;51.18;103331.69;4792128;29;20030;-78
2022/03/22 00:12:50;;;;;;;13.82;9.15;;;;;;;4.41;50.89;103332.56;4792157;29;20444;-78
2022/03/22 00:15:17;;;;;;;13.52;9.63;;;;;;;4.34;50.89;103322.34;4792378;29;20042;-78
2022/03/22 00:17:42;;;;;;;16.80;9.73;;;;;;;4.41;50.48;103340.56;4791315;29;20098;-78
2022/03/22 00:20:10;;;;;;;15.38;9.77;;;;;;;4.41;50.47;103329.88;4793190;29;20403;-78
2022/03/22 00:22:40;;;;;;;16.42;9.73;;;;;;;4.34;51.05;103325.00;4792508;29;20026;-78
2022/03/22 00:25:07;;;;;;;14.93;8.95;;;;;;;4.40;51.18;103332.63;4793539;29;20027;-78
2022/03/22 00:27:50;;;;;;;16.35;9.32;;;;;;;4.40;51.15;103328.19;4791516;29;20042;-78
2022/03/22 00:30:17;;;;;;;18.77;10.90;;;;;;;4.30;50.93;103319.03;4786229;29;20030;-78
2022/03/22 00:32:43;;;;;;;16.25;9.75;;;;;;;4.32;51.12;103308.28;4812006;29;20070;-78
2022/03/22 00:35:08;;;;;;;19.90;9.45;;;;;;;4.31;51.02;103307.44;4798556;29;20245;-78
2022/03/22 00:37:37;;;;;;;15.52;9.77;;;;;;;4.43;51.19;103319.13;4797645;29;20031;-79
2022/03/22 00:40:07;;;;;;;14.30;9.57;;;;;;;4.41;51.03;103324.56;4778577;29;20129;-78
2022/03/22 00:42:32;;;;;;;15.52;9.75;;;;;;;4.33;50.61;103305.50;4796392;29;20049;-78
2022/03/22 00:44:57;;;;;;;15.77;9.55;;;;;;;4.37;51.56;103317.72;4796326;29;20035;-77
2022/03/22 00:47:23;;;;;;;15.05;9.75;;;;;;;4.38;50.95;103321.22;4794918;29;20501;-78
2022/03/22 00:49:49;;;;;;;16.25;9.63;;;;;;;4.31;51.54;103307.44;4806758;29;20058;-78
2022/03/22 00:52:14;;;;;;;19.60;10.50;;;;;;;4.31;51.08;103310.09;4808782;29;20035;-78
2022/03/22 00:54:39;;;;;;;18.27;10.45;;;;;;;4.34;51.06;103319.69;4791666;29;20433;-78
2022/03/22 00:57:05;;;;;;;16.73;10.02;;;;;;;4.34;51.22;103309.91;4792242;29;20046;-78
2022/03/22 01:02:14;;;;;;;15.98;9.80;;;;;;;4.32;51.34;103313.63;4774620;30;20095;-78
2022/03/22 01:04:39;;;;;;;17.08;9.85;;;;;;;3.97;51.43;103258.94;4789942;30;20366;-78
2022/03/22 01:07:05;;;;;;;14.00;9.55;;;;;;;4.32;52.06;103313.63;4773370;30;20028;-78
2022/03/22 01:09:31;;;;;;;18.30;9.95;;;;;;;4.26;52.40;103303.34;4774380;30;20040;-78
2022/03/22 01:11:57;;;;;;;18.27;10.10;;;;;;;4.25;51.97;103302.47;4804892;29;20062;-78
2022/03/22 01:14:23;;;;;;;19.10;10.20;;;;;;;4.32;51.89;103308.28;4799433;29;20046;-78
2022/03/22 01:16:48;;;;;;;13.85;9.95;;;;;;;4.19;52.39;103289.53;4811447;29;20035;-79
2022/03/22 01:19:14;;;;;;;20.98;11.35;;;;;;;4.24;51.87;103296.31;4791643;29;20129;-78
2022/03/22 01:21:39;;;;;;;15.23;9.95;;;;;;;4.05;52.50;103268.25;4809820;29;20030;-78
2022/03/22 01:24:06;;;;;;;15.95;9.95;;;;;;;3.99;52.44;103262.31;4791906;29;20038;-78
2022/03/22 01:26:32;;;;;;;17.02;9.82;;;;;;;4.20;52.22;103294.75;4806289;29;20038;-78
2022/03/22 01:28:58;;;;;;;19.02;10.10;;;;;;;4.19;52.79;103297.53;4792283;29;20088;-78
2022/03/22 01:31:25;;;;;;;16.95;10.05;;;;;;;4.17;53.36;103294.09;4791338;29;20035;-78
2022/03/22 01:33:51;;;;;;;18.98;10.55;;;;;;;3.98;53.19;103257.09;4777480;29;20031;-78
2022/03/22 01:36:17;;;;;;;16.80;9.93;;;;;;;4.13;52.88;103285.44;4790272;29;20023;-78
2022/03/22 01:38:43;;;;;;;18.58;10.27;;;;;;;4.11;53.23;103282.03;4792442;29;20113;-78
2022/03/22 01:41:09;;;;;;;18.80;10.95;;;;;;;4.10;53.08;103277.63;4791279;29;20452;-78
2022/03/22 01:43:34;;;;;;;15.10;10.30;;;;;;;4.09;53.46;103280.41;4808023;29;20485;-78
2022/03/22 01:45:59;;;;;;;16.85;10.65;;;;;;;4.11;53.76;103281.19;4805547;29;20527;-79
2022/03/22 01:48:25;;;;;;;15.60;11.05;;;;;;;4.08;53.53;103282.22;4807814;29;20110;-78
2022/03/22 01:50:50;;;;;;;20.02;10.43;;;;;;;4.04;53.81;103280.72;4804826;29;20031;-79
2022/03/22 01:53:16;;;;;;;16.48;10.30;;;;;;;3.96;54.24;103269.66;4807559;29;20441;-78
2022/03/22 01:55:42;;;;;;;18.35;11.05;;;;;;;4.00;54.62;103281.81;4806738;29;20582;-78
2022/03/22 01:58:07;;;;;;;17.13;10.40;;;;;;;3.91;54.51;103272.63;4776752;29;20109;-79
2022/03/22 02:00:33;;;;;;;16.98;10.75;;;;;;;3.87;54.45;103265.75;4805103;29;20404;-78
2022/03/22 02:05:52;;;;;;;17.70;10.75;;;;;;;3.89;54.92;103271.00;4804963;29;21815;-78
2022/03/22 02:08:18;;;;;;;;;;;;;;;3.86;55.37;103273.84;4784721;29;20034;-78
2022/03/22 02:10:44;;;;;;;16.70;10.52;;;;;;;3.80;56.13;103269.75;4789740;29;20309;-78
2022/03/22 02:13:11;;;;;;;19.90;11.00;;;;;;;3.71;56.47;103259.69;4793448;29;20062;-78
2022/03/22 02:15:36;;;;;;;18.73;11.45;;;;;;;3.74;56.93;103267.44;4804254;29;20038;-79
2022/03/22 02:18:02;;;;;;;15.80;10.57;;;;;;;3.46;57.22;103223.88;4806258;29;20035;-78
2022/03/22 02:20:29;;;;;;;18.27;11.40;;;;;;;3.67;57.22;103264.31;4803845;29;20462;-79
2022/03/22 02:23:14;;;;;;;18.55;11.60;;;;;;;3.53;58.17;103253.66;4789380;29;20035;-78
2022/03/22 02:25:40;;;;;;;19.15;10.93;;;;;;;3.58;57.79;103256.06;4790138;29;20027;-78
2022/03/22 02:28:05;;;;;;;17.50;11.70;;;;;;;3.42;58.32;103242.81;4806750;29;20041;-78
2022/03/22 02:30:32;;;;;;;18.08;11.43;;;;;;;3.54;58.98;103258.00;4805941;29;20038;-78
2022/03/22 02:33:01;;;;;;;20.98;10.88;;;;;;;3.52;58.76;103258.13;4789552;29;20091;-78
2022/03/22 02:35:28;;;;;;;16.50;10.68;;;;;;;3.49;59.46;103260.13;4806351;29;20453;-78
2022/03/22 02:37:54;;;;;;;17.90;10.80;;;;;;;3.48;59.38;103258.41;4806438;29;20531;-78
2022/03/22 02:40:20;;;;;;;16.17;10.75;;;;;;;3.41;59.72;103246.41;4793914;29;20030;-78
2022/03/22 02:42:53;;;;;;;17.92;11.15;;;;;;;3.42;59.68;103254.31;4806136;29;20039;-78
2022/03/22 02:45:21;;;;;;;17.05;10.88;;;;;;;3.32;59.96;103247.81;4795612;29;20035;-78
2022/03/22 02:47:47;;;;;;;17.38;10.73;;;;;;;3.37;60.00;103256.38;4809561;29;20058;-78
2022/03/22 02:50:13;;;;;;;18.25;11.35;;;;;;;3.25;60.75;103234.03;4793858;29;20074;-78
2022/03/22 02:52:39;;;;;;;18.45;11.80;;;;;;;3.36;60.66;103261.78;4808265;29;20091;-78
2022/03/22 02:55:06;;;;;;;20.85;11.73;;;;;;;3.33;61.65;103251.34;4793454;29;20034;-78
2022/03/22 02:57:34;;;;;;;22.20;11.88;;;;;;;3.30;61.59;103244.38;4808139;29;20522;-78
2022/03/22 02:59:59;;;;;;;18.65;11.80;;;;;;;3.27;62.32;103245.41;4808161;29;20081;-78
2022/03/22 03:02:25;;;;;;;22.42;12.57;;;;;;;3.27;62.49;103250.72;4807507;29;20062;-78
2022/03/22 03:04:50;;;;;;;17.85;12.15;;;;;;;3.21;63.18;103239.59;4799368;29;20043;-78
2022/03/22 03:07:16;;;;;;;16.90;12.13;;;;;;;3.15;63.87;103235.53;4804844;29;20039;-78
2022/03/22 03:09:41;;;;;;;18.33;11.60;;;;;;;3.25;64.30;103242.00;4793317;29;20026;-78
2022/03/22 03:12:07;;;;;;;25.08;13.07;;;;;;;3.19;64.44;103238.84;4784162;29;20081;-78
2022/03/22 03:14:38;;;;;;;20.75;12.82;;;;;;;3.23;65.47;103245.69;4792543;29;20035;-78
2022/03/22 03:17:05;;;;;;;16.80;11.90;;;;;;;3.18;66.41;103235.34;4795231;29;20035;-78
2022/03/22 03:19:31;;;;;;;20.02;12.80;;;;;;;3.22;66.44;103244.00;4794511;29;20045;-79
2022/03/22 03:21:56;;;;;;;21.52;13.75;;;;;;;3.19;67.55;103233.53;4762295;29;20378;-79
2022/03/22 03:24:22;;;;;;;23.52;13.40;;;;;;;3.25;67.77;103251.81;4809154;29;20062;-78
2022/03/22 03:26:47;;;;;;;19.83;13.35;;;;;;;3.18;68.27;103235.34;4791487;29;20462;-79
2022/03/22 03:29:13;;;;;;;20.13;13.25;;;;;;;3.24;68.95;103242.94;4810429;29;20031;-79
2022/03/22 03:31:38;;;;;;;20.05;12.85;;;;;;;3.19;69.79;103231.72;4793278;29;20058;-78
2022/03/22 03:34:04;;;;;;;19.17;13.07;;;;;;;3.37;69.82;103250.19;4794416;29;20069;-78
2022/03/22 03:36:29;;;;;;;22.40;13.73;;;;;;;3.20;70.19;103220.13;4796833;29;20038;-79
2022/03/22 03:38:55;;;;;;;20.75;13.45;;;;;;;3.31;70.66;103230.13;4795292;29;20412;-78
2022/03/22 03:47:03;;;;;;;21.52;13.10;;;;;;;3.43;70.60;103249.84;4810152;29;20114;-78
2022/03/22 03:47:07;;;;;;;20.58;13.20;;;;;;;3.35;71.23;103242.31;4795249;29;20035;-78
2022/03/22 03:49:52;;;;;;;20.80;12.98;;;;;;;3.38;71.07;103249.22;4792418;29;20126;-78
2022/03/22 03:52:29;;;;;;;21.08;13.75;;;;;;;3.34;72.08;103247.72;4808184;29;20145;-78
2022/03/22 03:54:56;;;;;;;19.10;13.13;;;;;;;3.26;72.14;103241.06;4792879;29;20030;-78
2022/03/22 03:57:23;;;;;;;24.00;14.00;;;;;;;3.30;72.70;103253.22;4778479;29;20038;-78
2022/03/22 03:59:49;;;;;;;20.60;14.13;;;;;;;3.16;73.69;103231.91;4807663;29;20287;-78
2022/03/22 04:02:16;;;;;;;21.83;14.40;;;;;;;3.16;73.60;103231.06;4807336;29;20060;-78
2022/03/22 04:04:43;;;;;;;23.90;13.77;;;;;;;3.09;74.56;103219.91;4792720;29;20038;-78
2022/03/22 04:07:11;;;;;;;21.42;14.18;;;;;;;3.22;74.91;103241.34;4791527;29;20027;-78
2022/03/22 04:09:38;;;;;;;22.70;14.25;;;;;;;3.08;75.10;103228.84;4794409;29;20125;-78
2022/03/22 04:12:05;;;;;;;25.45;15.07;;;;;;;3.16;75.71;103237.22;4791015;29;20055;-78
2022/03/22 04:14:31;;;;;;;22.58;14.57;;;;;;;3.08;75.75;103225.31;4792683;29;20038;-79
2022/03/22 04:16:56;;;;;;;23.30;14.60;;;;;;;2.99;75.97;103214.28;4791819;29;20042;-78
2022/03/22 04:19:23;;;;;;;23.50;15.10;;;;;;;3.11;76.66;103233.13;4808614;29;20039;-78
2022/03/22 04:21:48;;;;;;;22.15;14.55;;;;;;;3.02;76.51;103224.75;4790881;29;20043;-78
2022/03/22 04:24:14;;;;;;;20.90;14.15;;;;;;;3.07;77.03;103240.41;4793346;29;20092;-78
2022/03/22 04:26:42;;;;;;;22.60;15.07;;;;;;;3.05;77.36;103237.88;4772659;30;20462;-78
2022/03/22 04:34:38;;;;;;;22.88;15.35;;;;;;;2.85;77.77;103224.00;4788520;29;20050;-78
2022/03/22 04:37:05;;;;;;;24.70;14.98;;;;;;;2.79;78.09;103217.25;4808701;29;20039;-78
2022/03/22 04:39:31;;;;;;;21.63;14.35;;;;;;;2.91;78.37;103242.25;4792021;29;20410;-78
2022/03/22 04:41:57;;;;;;;23.10;15.82;;;;;;;2.88;78.74;103243.31;4792904;29;20043;-78
2022/03/22 04:44:28;;;;;;;27.70;15.02;;;;;;;2.78;78.35;103232.34;4805625;29;20053;-78
2022/03/22 04:46:54;;;;;;;24.83;16.05;;;;;;;2.85;78.90;103253.25;4792165;29;20067;-78
2022/03/22 04:49:20;;;;;;;23.00;16.33;;;;;;;2.83;79.66;103256.88;4807986;29;20070;-78
2022/03/22 04:57:27;;;;;;;26.20;16.40;;;;;;;2.72;80.08;103243.34;4770965;29;20046;-78
2022/03/22 04:59:54;;;;;;;25.05;15.50;;;;;;;2.60;80.44;103214.78;4796048;29;20095;-78
2022/03/22 05:02:20;;;;;;;27.27;17.33;;;;;;;2.73;81.19;103231.75;4793408;29;20034;-78
2022/03/22 05:04:45;;;;;;;19.95;14.85;;;;;;;2.81;81.58;103248.13;4808323;29;20035;-78
2022/03/22 05:07:11;;;;;;;24.55;15.63;;;;;;;2.75;82.27;103234.34;4802023;29;20599;-78
2022/03/22 05:09:38;;;;;;;29.65;16.35;;;;;;;2.81;82.88;103242.81;4760325;29;20040;-78
2022/03/22 05:12:04;;;;;;;25.88;16.17;;;;;;;2.73;82.79;103234.41;4789163;29;20055;-78
2022/03/22 05:14:29;;;;;;;24.70;16.05;;;;;;;2.81;82.59;103242.81;4807933;29;20533;-78
2022/03/22 05:16:56;;;;;;;23.83;16.05;;;;;;;2.81;83.13;103241.94;4776375;29;20122;-78
2022/03/22 05:19:23;;;;;;;25.45;16.83;;;;;;;2.81;83.18;103253.47;4808132;29;20454;-78
2022/03/22 05:21:48;;;;;;;27.55;16.73;;;;;;;2.83;83.55;103248.88;4780587;29;20035;-78
2022/03/22 05:24:13;;;;;;;26.52;16.73;;;;;;;2.60;83.72;103204.16;4807185;29;20481;-78
2022/03/22 05:26:39;;;;;;;25.15;16.33;;;;;;;2.88;83.85;103247.75;4787150;29;20454;-78
2022/03/22 05:29:06;;;;;;;27.63;17.00;;;;;;;2.89;83.88;103241.50;4807164;29;20109;-78
2022/03/22 05:31:33;;;;;;;30.45;16.90;;;;;;;2.89;84.24;103242.38;4788083;29;20039;-78
2022/03/22 05:34:01;;;;;;;25.63;16.80;;;;;;;2.91;84.24;103247.59;4805745;29;20386;-79
2022/03/22 05:36:27;;;;;;;27.23;16.38;;;;;;;2.94;84.68;103258.03;4790757;29;20035;-79
2022/03/22 05:38:53;;;;;;;28.35;17.33;;;;;;;2.94;84.52;103253.56;4786194;29;20343;-79
2022/03/22 05:41:20;;;;;;;23.95;16.55;;;;;;;2.93;84.64;103245.69;4780612;29;20145;-78
2022/03/22 05:43:46;;;;;;;26.70;16.85;;;;;;;2.98;84.76;103246.28;4782008;29;20031;-80
2022/03/22 05:46:11;;;;;;;28.08;16.17;;;;;;;3.06;84.28;103252.03;4770980;29;20038;-78
2022/03/22 05:48:40;;;;;;;26.75;17.20;;;;;;;3.03;84.32;103245.06;4780969;29;20093;-79
2022/03/22 05:51:05;;;;;;;27.17;17.95;;;;;;;3.09;84.71;103245.66;4796938;29;20104;-78
2022/03/22 05:53:31;;;;;;;27.75;17.75;;;;;;;3.22;84.81;103252.84;4794391;29;20042;-79
2022/03/22 05:55:57;;;;;;;26.27;16.92;;;;;;;3.27;84.54;103263.19;4795075;29;20127;-78
2022/03/22 05:58:23;;;;;;;34.20;17.13;;;;;;;3.32;84.90;103263.78;4794736;29;20122;-79
2022/03/22 06:00:48;;;;;;;28.58;17.67;;;;;;;3.28;85.17;103247.16;4804932;29;20070;-80
2022/03/22 06:03:14;;;;;;;28.70;17.48;;;;;;;3.46;85.73;103260.28;4773170;29;20042;-81
2022/03/22 06:05:40;;;;;;;26.00;17.55;;;;;;;3.54;85.55;103266.00;4782919;29;20030;-80
2022/03/22 06:08:06;;;;;;;26.55;17.17;;;;;;;3.49;85.09;103239.66;4796476;29;20039;-80
2022/03/22 06:10:31;;;;;;;29.30;17.48;;;;;;;3.68;85.06;103255.38;4778910;29;20489;-79
2022/03/22 06:12:57;;;;;;;28.30;17.77;;;;;;;3.78;84.99;103260.16;4798774;29;20410;-80
2022/03/22 06:15:28;;;;;;;26.73;16.83;;;;;;;3.86;85.54;103265.84;4785782;29;20047;-81
2022/03/22 06:17:56;;;;;;;28.98;18.00;;;;;;;3.87;84.94;103257.75;4796313;29;20023;-80
2022/03/22 06:20:25;;;;;;;25.83;17.83;;;;;;;3.94;85.34;103244.91;4800809;29;20054;-80
2022/03/22 06:22:51;;;;;;;34.20;18.40;;;;;;;4.01;84.89;103254.25;4778869;29;20460;-81
2022/03/22 06:25:17;;;;;;;27.48;17.60;;;;;;;4.16;85.22;103269.25;4800073;29;20103;-79
2022/03/22 06:27:45;;;;;;;27.30;18.05;;;;;;;4.20;85.45;103257.44;4795175;29;20104;-79
2022/03/22 06:30:12;;;;;;;26.02;16.77;;;;;;;4.24;85.47;103247.47;4782645;29;20027;-78
2022/03/22 06:32:50;;;;;;;28.50;17.92;;;;;;;4.29;84.96;103247.16;4798136;29;20039;-79
2022/03/22 06:35:17;;;;;;;30.13;17.52;;;;;;;4.51;85.28;103268.00;4802059;29;20034;-79
2022/03/22 06:37:43;;;;;;;26.80;17.52;;;;;;;4.60;84.90;103264.69;4805993;29;20027;-79
2022/03/22 06:40:10;;;;;;;29.00;18.25;;;;;;;4.67;85.61;103263.38;4779145;29;20550;-78
2022/03/22 06:42:36;;;;;;;27.80;18.02;;;;;;;4.79;85.16;103270.56;4778904;29;20100;-78
2022/03/22 06:45:04;;;;;;;26.10;18.15;;;;;;;4.86;84.69;103269.19;4784791;29;20035;-79
2022/03/22 06:47:35;;;;;;;28.80;19.17;;;;;;;4.80;84.32;103245.63;4779802;29;20043;-79
2022/03/22 06:50:00;;;;;;;28.60;18.15;;;;;;;4.89;84.77;103255.66;4794575;29;20031;-79
2022/03/22 06:52:27;;;;;;;28.15;18.45;;;;;;;5.11;84.50;103280.91;4777841;29;20027;-80
2022/03/22 06:54:52;;;;;;;31.40;18.60;;;;;;;5.19;84.39;103278.56;4796959;29;20114;-82
2022/03/22 06:57:19;;;;;;;31.92;18.90;;;;;;;5.21;83.69;103267.81;4795741;29;20070;-81
2022/03/22 06:59:44;;;;;;;27.13;18.10;;;;;;;5.37;83.28;103290.69;4774645;29;20038;-81
2022/03/22 07:02:10;;;;;;;26.60;18.88;;;;;;;5.19;83.81;103242.06;4776607;29;20083;-81
2022/03/22 07:04:35;;;;;;;26.95;18.60;;;;;;;5.51;83.02;103281.75;4775036;29;20035;-81
2022/03/22 07:07:02;;;;;;;29.33;19.17;;;;;;;5.33;82.95;103237.59;4790377;29;20058;-81
2022/03/22 07:09:28;;;;;;;29.63;18.83;;;;;;;5.57;83.23;103265.28;4787344;29;20415;-81
2022/03/22 07:11:55;;;;;;;28.25;18.70;;;;;;;5.73;82.46;103277.56;4775118;29;20063;-80
2022/03/22 07:14:25;;;;;;;26.90;18.65;;;;;;;5.83;82.31;103290.22;4784183;29;20046;-81
2022/03/22 07:16:51;;;;;;;27.33;18.27;;;;;;;5.91;82.69;103288.81;4801231;29;20043;-81
2022/03/22 07:19:20;;;;;;;28.60;18.17;;;;;;;5.77;82.07;103258.56;4779341;29;20127;-79
2022/03/22 07:21:46;;;;;;;27.63;19.23;;;;;;;5.94;82.08;103283.28;4787261;29;20331;-80
2022/03/22 07:24:13;;;;;;;26.58;19.20;;;;;;;6.04;82.09;103293.22;4801309;29;20042;-80
2022/03/22 07:26:40;;;;;;;28.77;18.40;;;;;;;6.00;82.32;103275.69;4803314;29;20030;-79
2022/03/22 07:29:06;;;;;;;31.38;19.73;;;;;;;6.16;82.61;103290.63;4803252;29;20039;-79
2022/03/22 07:31:37;;;;;;;27.85;19.73;;;;;;;6.25;82.57;103306.00;4786236;29;20052;-80
2022/03/22 07:34:06;;;;;;;28.80;19.15;;;;;;;6.35;82.62;103299.88;4807329;29;20106;-80
2022/03/22 07:36:32;;;;;;;29.52;20.13;;;;;;;6.43;81.90;103293.16;4801695;29;20104;-80
2022/03/22 07:38:57;;;;;;;29.90;20.08;;;;;;;6.55;82.42;103300.28;4775351;29;20034;-81
2022/03/22 07:41:22;;;;;;;29.90;20.27;;;;;;;6.59;82.18;103308.00;4775758;29;20066;-80
2022/03/22 07:43:48;;;;;;;28.70;19.92;;;;;;;6.66;82.46;103304.88;4798617;29;20089;-80
2022/03/22 07:46:13;;;;;;;34.00;20.83;;;;;;;6.73;82.62;103309.66;4770741;29;20075;-80
2022/03/22 07:48:39;;;;;;;27.25;20.45;;;;;;;6.66;82.59;103289.66;4772178;29;20520;-80
2022/03/22 07:53:48;;;;;;;28.48;20.38;;;;;;;6.90;82.45;103319.09;4775135;29;20099;-80
2022/03/22 07:56:14;;;;;;;30.70;20.45;;;;;;;6.79;82.52;103300.31;4777998;29;20035;-81
2022/03/22 07:58:39;;;;;;;35.03;20.52;;;;;;;7.03;82.36;103327.94;4794935;29;20035;-80
2022/03/22 08:01:05;;;;;;;34.47;20.77;;;;;;;7.16;82.08;103327.03;4760324;29;20061;-81
2022/03/22 08:03:30;;;;;;;30.95;20.13;;;;;;;7.16;82.43;103329.72;4796356;29;20071;-81
2022/03/22 08:05:56;;;;;;;29.67;20.60;;;;;;;7.19;81.86;103329.47;4768068;29;20023;-82
2022/03/22 08:08:21;;;;;;;29.35;20.60;;;;;;;7.23;81.96;103339.84;4800163;29;20060;-81
2022/03/22 08:10:47;;;;;;;31.38;20.58;;;;;;;7.24;81.87;103333.50;4787123;29;20039;-81
2022/03/22 08:13:14;;;;;;;30.33;21.40;;;;;;;7.27;82.22;103338.63;4796859;29;20047;-80
2022/03/22 08:15:40;;;;;;;34.17;21.65;;;;;;;7.36;81.98;103346.97;4795761;29;20039;-81
2022/03/22 08:18:06;;;;;;;31.95;20.30;;;;;;;7.36;82.08;103331.75;4801855;29;20038;-81
2022/03/22 08:20:32;;;;;;;31.77;21.42;;;;;;;7.37;81.42;103322.72;4803816;29;20043;-80
2022/03/22 08:23:00;;;;;;;277.30;39.60;;;;;;;7.55;81.93;103339.25;4808315;29;20476;-79
2022/03/22 08:25:36;;;;;;;64.88;24.05;;;;;;;7.58;81.97;103336.31;4791450;29;20034;-80
2022/03/22 08:28:03;;;;;;;46.17;22.63;;;;;;;7.59;81.67;103319.28;4772734;30;20114;-80
2022/03/22 08:30:29;;;;;;;42.20;22.65;;;;;;;7.70;81.34;103331.84;4773982;30;20485;-79
2022/03/22 08:32:58;;;;;;;31.30;21.20;;;;;;;7.62;81.33;103315.50;4800546;29;20043;-80
2022/03/22 08:35:25;;;;;;;31.20;21.55;;;;;;;7.67;81.75;103335.59;4799349;29;20027;-78
2022/03/22 08:37:52;;;;;;;31.67;21.38;;;;;;;7.73;81.54;103323.56;4802611;29;20027;-80
2022/03/22 08:40:17;;;;;;;31.58;21.30;;;;;;;7.82;81.40;103327.38;4804967;29;20461;-80
2022/03/22 08:42:44;;;;;;;33.80;22.20;;;;;;;7.80;81.13;103321.25;4784081;29;20035;-80
2022/03/22 08:45:15;;;;;;;32.55;21.70;;;;;;;7.97;81.41;103345.78;4756285;29;20055;-80
2022/03/22 08:47:41;;;;;;;32.92;22.23;;;;;;;8.07;81.34;103343.22;4792073;29;20104;-81
2022/03/22 08:50:09;;;;;;;36.78;22.20;;;;;;;8.11;81.34;103344.72;4801906;29;20099;-80
2022/03/22 08:52:35;;;;;;;30.17;22.02;;;;;;;8.17;81.10;103335.31;4793191;29;20065;-81
2022/03/22 08:55:01;;;;;;;30.23;21.70;;;;;;;8.29;80.55;103344.22;4761919;29;20143;-80
2022/03/22 08:57:26;;;;;;;34.03;21.80;;;;;;;8.19;80.81;103319.97;4806955;29;20438;-79
2022/03/22 08:59:52;;;;;;;48.30;23.92;;;;;;;8.24;80.81;103312.38;4779323;29;20116;-80
2022/03/22 09:02:17;;;;;;;40.65;24.15;;;;;;;8.45;80.96;103340.22;4776607;29;20059;-79
2022/03/22 09:07:27;;;;;;;35.90;24.20;;;;;;;8.61;80.65;103344.34;4794604;29;20406;-78
2022/03/22 09:09:52;;;;;;;33.92;23.83;;;;;;;8.59;80.81;103327.53;4791700;29;20118;-78
2022/03/22 09:12:18;;;;;;;31.27;23.55;;;;;;;8.69;80.03;103340.06;4789489;29;20057;-78
2022/03/22 09:14:43;;;;;;;34.58;23.38;;;;;;;8.82;80.32;103345.31;4806204;29;20042;-78
2022/03/22 09:17:09;;;;;;;34.22;24.35;;;;;;;8.88;80.37;103336.75;4778376;29;20045;-78
2022/03/22 09:19:36;;;;;;;32.50;24.15;;;;;;;8.82;80.13;103322.97;4782118;30;20523;-78
2022/03/22 09:22:05;;;;;;;34.28;24.13;;;;;;;8.84;79.85;103329.94;4777132;30;20035;-78
2022/03/22 09:24:32;;;;;;;36.30;23.95;;;;;;;8.98;79.82;103338.69;4779757;30;20046;-78
2022/03/22 09:26:57;;;;;;;34.85;25.25;;;;;;;9.18;79.58;103351.31;4763961;29;20454;-77
2022/03/22 09:29:23;;;;;;;35.17;24.55;;;;;;;9.24;79.31;103339.19;4801247;29;20042;-77
2022/03/22 09:31:49;;;;;;;34.80;24.48;;;;;;;9.20;78.17;103335.91;4813352;29;20053;-78
2022/03/22 09:34:14;;;;;;;32.95;24.80;;;;;;;9.20;78.36;103327.84;4795757;29;20022;-80
2022/03/22 09:36:40;;;;;;;35.72;25.08;;;;;;;9.34;78.48;103353.59;4795218;29;20027;-79
2022/03/22 09:39:05;;;;;;;38.55;27.15;;;;;;;9.36;78.01;103355.13;4809860;29;20374;-79
2022/03/22 09:41:31;;;;;;;35.40;25.52;;;;;;;9.44;77.86;103350.94;4811093;29;20383;-77
2022/03/22 09:43:58;;;;;;;34.63;25.17;;;;;;;9.21;77.27;103315.28;4787703;29;20093;-77
2022/03/22 09:46:24;;;;;;;37.63;25.20;;;;;;;9.34;76.44;103346.38;4793116;29;20512;-77
2022/03/22 09:48:50;;;;;;;37.53;26.30;;;;;;;9.36;76.32;103352.44;4798317;29;20030;-78
2022/03/22 09:54:03;;;;;;;35.25;25.27;;;;;;;9.41;76.02;103344.03;4798958;29;20046;-78
2022/03/22 09:56:32;;;;;;;36.35;26.30;;;;;;;9.47;75.58;103351.56;4802972;29;20441;-79
2022/03/22 09:58:59;;;;;;;33.53;26.05;;;;;;;9.50;75.17;103351.28;4797662;29;20034;-78
2022/03/22 10:01:25;;;;;;;38.45;25.67;;;;;;;9.32;75.14;103342.94;4798823;29;20121;-78
2022/03/22 10:04:07;;;;;;;39.58;26.08;;;;;;;8.84;75.10;103289.66;4805308;29;20130;-78
2022/03/22 10:06:33;;;;;;;35.72;25.90;;;;;;;9.10;74.70;103329.59;4786800;29;20061;-78
2022/03/22 10:09:00;;;;;;;33.13;25.73;;;;;;;9.24;74.42;103340.06;4782604;30;20043;-78
2022/03/22 10:11:40;;;;;;;36.67;26.83;;;;;;;9.45;74.77;103341.91;4801859;29;20119;-77
2022/03/22 10:14:08;;;;;;;34.47;27.17;;;;;;;9.41;74.57;103352.94;4778186;30;20143;-78
2022/03/22 10:16:54;;;;;;;40.25;27.30;;;;;;;9.44;74.00;103351.81;4769665;30;20035;-77
2022/03/22 10:19:24;;;;;;;42.67;28.75;;;;;;;9.50;74.81;103345.06;4782145;29;20049;-78
2022/03/22 10:21:51;;;;;;;37.65;26.77;;;;;;;9.64;73.67;103350.13;4796169;29;20035;-77
2022/03/22 10:24:17;;;;;;;34.83;26.95;;;;;;;9.62;73.58;103349.41;4777351;29;20431;-77
2022/03/22 10:26:44;;;;;;;39.42;29.00;;;;;;;9.54;73.78;103352.75;4791119;29;20143;-77
2022/03/22 10:29:12;;;;;;;38.97;29.58;;;;;;;9.53;73.65;103337.59;4789086;29;20031;-77
2022/03/22 10:31:39;;;;;;;41.00;29.25;;;;;;;9.68;74.38;103350.72;4795823;29;20027;-75
2022/03/22 10:34:05;;;;;;;41.40;28.20;;;;;;;9.71;74.23;103335.19;4798115;29;20438;-78
2022/03/22 10:36:36;;;;;;;45.55;29.85;;;;;;;9.74;74.33;103334.91;4793264;29;20046;-77
2022/03/22 10:39:10;;;;;;;40.17;29.15;;;;;;;9.76;74.22;103322.19;4792679;29;20030;-78
2022/03/22 10:41:41;;;;;;;38.40;27.50;;;;;;;9.95;74.00;103339.44;4773408;30;20043;-78
2022/03/22 10:44:09;;;;;;;42.70;29.00;;;;;;;10.03;74.48;103337.78;4785616;30;20077;-79
2022/03/22 10:46:36;;;;;;;37.05;27.58;;;;;;;9.98;73.28;103328.41;4776784;30;20096;-79
2022/03/22 10:49:21;;;;;;;41.58;29.40;;;;;;;9.96;73.91;103350.03;4784640;29;20099;-78
2022/03/22 10:51:49;;;;;;;39.90;28.25;;;;;;;9.94;72.91;103351.19;4796206;29;20066;-78
2022/03/22 10:54:19;;;;;;;44.83;29.35;;;;;;;9.90;72.78;103347.91;4772150;30;20086;-78
2022/03/22 10:56:57;;;;;;;38.72;28.05;;;;;;;10.04;72.24;103331.41;4765959;29;20043;-78
2022/03/22 10:59:26;;;;;;;37.45;27.90;;;;;;;10.15;72.24;103341.22;4792694;29;20096;-79
2022/03/22 11:01:57;;;;;;;43.88;28.40;;;;;;;10.04;72.00;103315.28;4792797;29;20130;-78
2022/03/22 11:04:24;;;;;;;45.67;29.38;;;;;;;10.09;71.12;103344.44;4810170;29;20095;-79
2022/03/22 11:06:50;;;;;;;39.55;29.80;;;;;;;9.99;71.46;103343.56;4791852;29;20347;-79
2022/03/22 11:09:17;;;;;;;39.55;28.88;;;;;;;9.91;71.32;103325.41;4805532;29;20035;-78
2022/03/22 11:11:43;;;;;;;41.72;30.10;;;;;;;10.04;71.14;103344.00;4805673;29;20043;-78
2022/03/22 11:14:12;;;;;;;41.83;29.65;;;;;;;10.07;71.79;103339.22;4783634;29;20079;-78
2022/03/22 11:16:39;;;;;;;40.28;29.60;;;;;;;10.10;71.18;103338.97;4799406;29;20027;-79
2022/03/22 11:19:05;;;;;;;38.42;28.85;;;;;;;10.03;69.50;103339.59;4804220;29;20023;-78
2022/03/22 11:21:32;;;;;;;38.85;28.20;;;;;;;10.02;69.18;103341.44;4799148;29;20043;-77
2022/03/22 11:24:08;;;;;;;42.55;29.80;;;;;;;10.06;69.43;103333.97;4781664;29;20031;-78
2022/03/22 11:26:42;;;;;;;42.20;29.25;;;;;;;10.05;69.72;103329.56;4790882;29;20464;-78
2022/03/22 11:29:10;;;;;;;43.50;28.85;;;;;;;10.31;68.63;103333.56;4788176;29;20113;-78
2022/03/22 11:31:37;;;;;;;39.58;29.00;;;;;;;10.45;67.54;103331.47;4803954;29;20091;-77
2022/03/22 11:34:13;;;;;;;41.15;28.88;;;;;;;10.56;67.17;103337.63;4785487;29;20035;-77
2022/03/22 11:36:44;;;;;;;38.08;29.23;;;;;;;10.35;66.21;103312.59;4784254;29;20036;-77
2022/03/22 11:39:10;;;;;;;40.83;29.33;;;;;;;10.37;65.80;103336.69;4803773;29;20117;-78
2022/03/22 11:44:36;;;;;;;38.58;28.15;;;;;;;10.34;65.57;103318.97;4789169;29;20098;-77
2022/03/22 11:47:20;;;;;;;40.50;28.27;;;;;;;10.32;64.34;103326.31;4799295;29;20031;-77